»·PEaware :: DCM206 KPSP-KRNO

DCM206 :: KPSP-KRNO

FLIGHT INFORMATION

Flight Status: Arrived
Operator:
DotCom
More flights by this operator :: More flights under this callsign
Pilot: Nick L. (7253)
Aircraft: BOEING 737-700
(B737)
More flights by this aircraft type
Origin: KPSP Palm Springs Intl
United States
Destination: KRNO Reno/Tahoe Intl
United States
More flights between these airports :: More routes between these airports
Route: PSP V386 PMD LANDO FMG
File this flight plan on PilotEdge
Remarks: RMK / SIMBRIEF
Altitude:
(Current/Filed)
38,000ft
Speed:
(Current/Filed)
453kts
Departed: 07-Feb-21 01:31 PM
Arrived: 07-Feb-21 02:42 PM
Distance/Time
Traveled:
375nm/1:10
Distance/Time
To Go:
Arrived

Flight Plot

Page will automatically refresh every two minutes.

Flight plan parsing failed; only flown route is shown


Map Options




Map Legend


Flown Route
Filed Route
Departure Airport
Arrival Airport
Navaid (VOR, NDB)
Fix

Horizontal Profiles

Position Reports

Time Latitude Longitude Heading Altitude Ground
Speed
07-Feb-21 13:09 33.825755 -116.509256 270 424ft 0kts
07-Feb-21 13:10 33.825755 -116.509256 270 424ft 0kts
07-Feb-21 13:11 33.825755 -116.509256 270 424ft 0kts
07-Feb-21 13:12 33.825755 -116.509256 270 424ft 0kts
07-Feb-21 13:13 33.825755 -116.509256 270 424ft 0kts
07-Feb-21 13:14 33.825755 -116.509256 270 424ft 0kts
07-Feb-21 13:15 33.825755 -116.509256 270 424ft 0kts
07-Feb-21 13:16 33.825755 -116.509256 270 424ft 0kts
07-Feb-21 13:17 33.825755 -116.509256 270 424ft 0kts
07-Feb-21 13:18 33.825755 -116.509256 270 424ft 0kts
07-Feb-21 13:19 33.825755 -116.509256 270 424ft 0kts
07-Feb-21 13:20 33.825755 -116.509256 270 424ft 0kts
07-Feb-21 13:21 33.825755 -116.509256 270 424ft 0kts
07-Feb-21 13:22 33.825755 -116.509256 270 424ft 0kts
07-Feb-21 13:23 33.825755 -116.509256 270 424ft 0kts
07-Feb-21 13:24 33.825755 -116.509256 270 424ft 0kts
07-Feb-21 13:25 33.825755 -116.509256 270 424ft 0kts
07-Feb-21 13:26 33.825550 -116.509385 161 424ft 3kts
07-Feb-21 13:27 33.825361 -116.505965 105 418ft 13kts
07-Feb-21 13:28 33.821207 -116.502163 143 407ft 24kts
07-Feb-21 13:29 33.818526 -116.499211 87 400ft 7kts
07-Feb-21 13:30 33.828480 -116.506621 323 425ft 159kts
07-Feb-21 13:31 33.873400 -116.509463 52 3164ft 213kts
07-Feb-21 13:32 33.866149 -116.432646 120 6188ft 272kts
07-Feb-21 13:33 33.825945 -116.353071 120 9937ft 288kts
07-Feb-21 13:34 33.780663 -116.263611 121 12458ft 339kts
07-Feb-21 13:35 33.732888 -116.153687 100 13041ft 396kts
07-Feb-21 13:36 33.764872 -116.041538 33 14581ft 405kts
07-Feb-21 13:37 33.858583 -116.066095 302 18851ft 377kts
07-Feb-21 13:39 33.905814 -116.180381 295 21555ft 390kts
07-Feb-21 13:40 33.953839 -116.301815 295 22999ft 428kts
07-Feb-21 13:41 34.007896 -116.439022 295 22998ft 461kts
07-Feb-21 13:42 34.062424 -116.577992 295 25798ft 456kts
07-Feb-21 13:43 34.115871 -116.714771 295 28522ft 450kts
07-Feb-21 13:44 34.168647 -116.850386 295 30946ft 445kts
07-Feb-21 13:45 34.220737 -116.984782 295 33094ft 440kts
07-Feb-21 13:46 34.272187 -117.118060 295 35003ft 436kts
07-Feb-21 13:47 34.322945 -117.250069 295 36645ft 433kts
07-Feb-21 13:48 34.373398 -117.381810 295 37940ft 434kts
07-Feb-21 13:49 34.425287 -117.517850 295 37999ft 447kts
07-Feb-21 13:50 34.476795 -117.653447 294 38000ft 444kts
07-Feb-21 13:51 34.528429 -117.789969 294 37999ft 445kts
07-Feb-21 13:52 34.579714 -117.926160 294 38000ft 444kts
07-Feb-21 13:52 34.622568 -118.039509 298 38000ft 444kts
07-Feb-21 13:54 34.710443 -118.177820 310 38000ft 445kts
07-Feb-21 13:55 34.790054 -118.292710 310 38000ft 444kts
07-Feb-21 13:56 34.869320 -118.407612 310 38000ft 445kts
07-Feb-21 13:56 34.935392 -118.503661 310 38000ft 445kts
07-Feb-21 13:58 35.046148 -118.612824 337 38003ft 445kts
07-Feb-21 13:58 35.145482 -118.645494 350 38000ft 445kts
07-Feb-21 13:59 35.266997 -118.671692 349 38000ft 444kts
07-Feb-21 14:00 35.388556 -118.698230 349 38000ft 445kts
07-Feb-21 14:01 35.510077 -118.724835 349 38000ft 445kts
07-Feb-21 14:02 35.631332 -118.751465 349 38000ft 445kts
07-Feb-21 14:03 35.752977 -118.778265 349 38000ft 445kts
07-Feb-21 14:04 35.874192 -118.805051 349 38000ft 445kts
07-Feb-21 14:05 35.995587 -118.831961 349 38000ft 445kts
07-Feb-21 14:06 36.117234 -118.859010 349 38000ft 445kts
07-Feb-21 14:07 36.238885 -118.886146 349 37982ft 445kts
07-Feb-21 14:08 36.364901 -118.914340 349 36949ft 474kts
07-Feb-21 14:09 36.492753 -118.943522 349 36129ft 466kts
07-Feb-21 14:10 36.620973 -118.973275 349 35631ft 471kts
07-Feb-21 14:11 36.749514 -119.003061 349 35129ft 471kts
07-Feb-21 14:12 36.878152 -119.032827 349 34630ft 472kts
07-Feb-21 14:13 37.007330 -119.062675 349 34130ft 473kts
07-Feb-21 14:14 37.136396 -119.092455 349 33631ft 474kts
07-Feb-21 14:15 37.266126 -119.122346 349 33131ft 475kts
07-Feb-21 14:16 37.396098 -119.152248 349 32630ft 476kts
07-Feb-21 14:17 37.526566 -119.182221 349 32130ft 477kts
07-Feb-21 14:18 37.657008 -119.212142 349 31630ft 478kts
07-Feb-21 14:19 37.787802 -119.242099 349 31130ft 480kts
07-Feb-21 14:20 37.919160 -119.272141 349 30630ft 481kts
07-Feb-21 14:21 38.050693 -119.302176 349 30023ft 484kts
07-Feb-21 14:22 38.180672 -119.331812 350 28499ft 454kts
07-Feb-21 14:23 38.299482 -119.358866 350 26998ft 430kts
07-Feb-21 14:24 38.416046 -119.385374 350 25495ft 421kts
07-Feb-21 14:25 38.529832 -119.411218 350 23992ft 411kts
07-Feb-21 14:26 38.640844 -119.436399 350 22491ft 402kts
07-Feb-21 14:27 38.749683 -119.461057 350 20986ft 393kts
07-Feb-21 14:28 38.855760 -119.485060 350 19485ft 384kts
07-Feb-21 14:29 38.959736 -119.508561 350 17922ft 377kts
07-Feb-21 14:30 39.060858 -119.531390 350 16011ft 361kts
07-Feb-21 14:31 39.160200 -119.555866 349 15917ft 364kts
07-Feb-21 14:32 39.256197 -119.580364 349 13840ft 361kts
07-Feb-21 14:33 39.356554 -119.601803 352 10790ft 348kts
07-Feb-21 14:34 39.440737 -119.617570 352 9824ft 272kts
07-Feb-21 14:35 39.511793 -119.631042 352 8998ft 252kts
07-Feb-21 14:36 39.578124 -119.644330 342 7808ft 217kts
07-Feb-21 14:37 39.610548 -119.692905 279 6935ft 178kts
07-Feb-21 14:38 39.595350 -119.750140 220 6017ft 165kts
07-Feb-21 14:39 39.554925 -119.766573 181 5181ft 156kts
07-Feb-21 14:40 39.511998 -119.766769 179 4441ft 154kts
07-Feb-21 14:41 39.491797 -119.766795 179 4410ft 28kts
07-Feb-21 14:42 39.489275 -119.765564 70 4412ft 0kts
07-Feb-21 14:43 39.491389 -119.765239 359 4410ft 12kts
07-Feb-21 14:44 39.496558 -119.765227 2 4407ft 21kts
07-Feb-21 14:45 39.499205 -119.764841 89 4408ft 0kts

Navigation Log

Ident Type
Flight plan parsing failed, navigation log unavailable